sensor_id;sensor_type;location;lat;lon;timestamp;temperature;humidity
39347;DHT22;26262;49.836;6.632;2023-01-16T00:02:06;5.10;99.90
39347;DHT22;26262;49.836;6.632;2023-01-16T00:04:31;5.10;99.90
39347;DHT22;26262;49.836;6.632;2023-01-16T00:06:59;5.10;99.90
39347;DHT22;26262;49.836;6.632;2023-01-16T00:09:24;5.10;99.90
39347;DHT22;26262;49.836;6.632;2023-01-16T00:11:50;5.10;99.90
39347;DHT22;26262;49.836;6.632;2023-01-16T00:14:16;5.00;99.90
39347;DHT22;26262;49.836;6.632;2023-01-16T00:16:41;5.00;99.90
39347;DHT22;26262;49.836;6.632;2023-01-16T00:19:07;5.00;99.90
39347;DHT22;26262;49.836;6.632;2023-01-16T00:21:32;5.00;99.90
39347;DHT22;26262;49.836;6.632;2023-01-16T00:23:58;5.00;99.90
39347;DHT22;26262;49.836;6.632;2023-01-16T00:26:26;5.10;99.90
39347;DHT22;26262;49.836;6.632;2023-01-16T00:28:51;5.10;99.90
39347;DHT22;26262;49.836;6.632;2023-01-16T00:31:17;5.10;99.90
39347;DHT22;26262;49.836;6.632;2023-01-16T00:33:43;5.10;99.90
39347;DHT22;26262;49.836;6.632;2023-01-16T00:36:10;5.10;99.90
39347;DHT22;26262;49.836;6.632;2023-01-16T00:38:36;5.20;99.90
39347;DHT22;26262;49.836;6.632;2023-01-16T00:41:01;5.20;99.90
39347;DHT22;26262;49.836;6.632;2023-01-16T00:43:27;5.20;99.90
39347;DHT22;26262;49.836;6.632;2023-01-16T00:45:53;5.20;99.90
39347;DHT22;26262;49.836;6.632;2023-01-16T00:48:18;5.20;99.90
39347;DHT22;26262;49.836;6.632;2023-01-16T00:50:44;5.20;99.90
39347;DHT22;26262;49.836;6.632;2023-01-16T00:53:09;5.20;99.90
39347;DHT22;26262;49.836;6.632;2023-01-16T00:55:35;5.10;99.90
39347;DHT22;26262;49.836;6.632;2023-01-16T00:58:03;5.10;99.90
39347;DHT22;26262;49.836;6.632;2023-01-16T01:00:29;5.10;99.90
39347;DHT22;26262;49.836;6.632;2023-01-16T01:02:55;5.10;99.90
39347;DHT22;26262;49.836;6.632;2023-01-16T01:05:21;5.20;99.90
39347;DHT22;26262;49.836;6.632;2023-01-16T01:07:46;5.00;99.90
39347;DHT22;26262;49.836;6.632;2023-01-16T01:10:12;5.00;99.90
39347;DHT22;26262;49.836;6.632;2023-01-16T01:12:37;5.00;99.90
39347;DHT22;26262;49.836;6.632;2023-01-16T01:15:03;5.00;99.90
39347;DHT22;26262;49.836;6.632;2023-01-16T01:17:29;5.10;99.90
39347;DHT22;26262;49.836;6.632;2023-01-16T01:19:55;5.10;99.90
39347;DHT22;26262;49.836;6.632;2023-01-16T01:22:20;5.00;99.90
39347;DHT22;26262;49.836;6.632;2023-01-16T01:24:49;5.10;99.90
39347;DHT22;26262;49.836;6.632;2023-01-16T01:27:15;5.10;99.90
39347;DHT22;26262;49.836;6.632;2023-01-16T01:29:41;5.10;99.90
39347;DHT22;26262;49.836;6.632;2023-01-16T01:32:07;5.10;99.90
39347;DHT22;26262;49.836;6.632;2023-01-16T01:34:33;5.10;99.90
39347;DHT22;26262;49.836;6.632;2023-01-16T01:37:02;5.10;99.90
39347;DHT22;26262;49.836;6.632;2023-01-16T01:39:28;5.00;99.90
39347;DHT22;26262;49.836;6.632;2023-01-16T01:41:54;5.00;99.90
39347;DHT22;26262;49.836;6.632;2023-01-16T01:44:53;5.00;99.90
39347;DHT22;26262;49.836;6.632;2023-01-16T01:47:23;5.00;99.90
39347;DHT22;26262;49.836;6.632;2023-01-16T01:49:52;5.00;99.90
39347;DHT22;26262;49.836;6.632;2023-01-16T01:52:20;5.00;99.90
39347;DHT22;26262;49.836;6.632;2023-01-16T01:54:51;4.80;99.90
39347;DHT22;26262;49.836;6.632;2023-01-16T01:57:39;4.80;99.90
39347;DHT22;26262;49.836;6.632;2023-01-16T02:00:10;4.80;99.90
39347;DHT22;26262;49.836;6.632;2023-01-16T02:02:40;4.80;99.90
39347;DHT22;26262;49.836;6.632;2023-01-16T02:05:08;4.80;99.90
39347;DHT22;26262;49.836;6.632;2023-01-16T02:07:36;4.80;99.90
39347;DHT22;26262;49.836;6.632;2023-01-16T02:10:25;4.80;99.90
39347;DHT22;26262;49.836;6.632;2023-01-16T02:12:53;4.80;99.90
39347;DHT22;26262;49.836;6.632;2023-01-16T02:15:20;4.80;99.90
39347;DHT22;26262;49.836;6.632;2023-01-16T02:17:48;4.80;99.90
39347;DHT22;26262;49.836;6.632;2023-01-16T02:20:46;4.90;99.90
39347;DHT22;26262;49.836;6.632;2023-01-16T02:26:08;4.80;99.90
39347;DHT22;26262;49.836;6.632;2023-01-16T02:29:14;4.70;99.90
39347;DHT22;26262;49.836;6.632;2023-01-16T02:31:43;4.80;99.90
39347;DHT22;26262;49.836;6.632;2023-01-16T02:42:43;4.90;99.90
39347;DHT22;26262;49.836;6.632;2023-01-16T02:48:04;4.70;99.90
39347;DHT22;26262;49.836;6.632;2023-01-16T02:50:42;4.70;99.90
39347;DHT22;26262;49.836;6.632;2023-01-16T02:53:19;4.70;99.90
39347;DHT22;26262;49.836;6.632;2023-01-16T02:56:07;4.70;99.90
39347;DHT22;26262;49.836;6.632;2023-01-16T02:58:39;4.80;99.90
39347;DHT22;26262;49.836;6.632;2023-01-16T03:01:06;4.80;99.90
39347;DHT22;26262;49.836;6.632;2023-01-16T03:04:04;4.80;99.90
39347;DHT22;26262;49.836;6.632;2023-01-16T03:06:49;4.80;99.90
39347;DHT22;26262;49.836;6.632;2023-01-16T03:09:24;4.80;99.90
39347;DHT22;26262;49.836;6.632;2023-01-16T03:14:38;4.70;99.90
39347;DHT22;26262;49.836;6.632;2023-01-16T03:17:11;4.60;99.90
39347;DHT22;26262;49.836;6.632;2023-01-16T03:22:41;4.70;99.90
39347;DHT22;26262;49.836;6.632;2023-01-16T03:33:33;4.80;99.90
39347;DHT22;26262;49.836;6.632;2023-01-16T03:36:21;4.80;99.90
39347;DHT22;26262;49.836;6.632;2023-01-16T03:38:50;4.80;99.90
39347;DHT22;26262;49.836;6.632;2023-01-16T03:41:20;4.80;99.90
39347;DHT22;26262;49.836;6.632;2023-01-16T03:43:50;4.70;99.90
39347;DHT22;26262;49.836;6.632;2023-01-16T03:46:27;4.80;99.90
39347;DHT22;26262;49.836;6.632;2023-01-16T03:48:59;4.80;99.90
39347;DHT22;26262;49.836;6.632;2023-01-16T03:51:30;4.80;99.90
39347;DHT22;26262;49.836;6.632;2023-01-16T03:54:07;4.80;99.90
39347;DHT22;26262;49.836;6.632;2023-01-16T03:59:37;4.80;99.90
39347;DHT22;26262;49.836;6.632;2023-01-16T04:04:52;4.70;99.90
39347;DHT22;26262;49.836;6.632;2023-01-16T04:07:39;4.80;99.90
39347;DHT22;26262;49.836;6.632;2023-01-16T04:10:11;4.80;99.90
39347;DHT22;26262;49.836;6.632;2023-01-16T04:13:01;4.70;99.90
39347;DHT22;26262;49.836;6.632;2023-01-16T04:15:30;4.80;99.90
39347;DHT22;26262;49.836;6.632;2023-01-16T04:17:57;4.80;99.90
39347;DHT22;26262;49.836;6.632;2023-01-16T04:20:23;4.70;99.90
39347;DHT22;26262;49.836;6.632;2023-01-16T04:22:50;4.70;99.90
39347;DHT22;26262;49.836;6.632;2023-01-16T04:25:17;4.60;99.90
39347;DHT22;26262;49.836;6.632;2023-01-16T04:27:44;4.70;99.90
39347;DHT22;26262;49.836;6.632;2023-01-16T04:30:09;4.70;99.90
39347;DHT22;26262;49.836;6.632;2023-01-16T04:32:35;4.70;99.90
39347;DHT22;26262;49.836;6.632;2023-01-16T04:35:01;4.70;99.90
39347;DHT22;26262;49.836;6.632;2023-01-16T04:37:27;4.80;99.90
39347;DHT22;26262;49.836;6.632;2023-01-16T04:39:52;4.80;99.90
39347;DHT22;26262;49.836;6.632;2023-01-16T04:42:18;4.80;99.90
39347;DHT22;26262;49.836;6.632;2023-01-16T04:44:43;4.80;99.90
39347;DHT22;26262;49.836;6.632;2023-01-16T04:47:10;4.70;99.90
39347;DHT22;26262;49.836;6.632;2023-01-16T04:49:35;4.70;99.90
39347;DHT22;26262;49.836;6.632;2023-01-16T04:52:01;4.70;99.90
39347;DHT22;26262;49.836;6.632;2023-01-16T04:54:27;4.70;99.90
39347;DHT22;26262;49.836;6.632;2023-01-16T04:56:52;4.70;99.90
39347;DHT22;26262;49.836;6.632;2023-01-16T04:59:18;4.70;99.90
39347;DHT22;26262;49.836;6.632;2023-01-16T05:01:44;4.70;99.90
39347;DHT22;26262;49.836;6.632;2023-01-16T05:04:11;4.70;99.90
39347;DHT22;26262;49.836;6.632;2023-01-16T05:06:37;4.80;99.90
39347;DHT22;26262;49.836;6.632;2023-01-16T05:09:04;4.80;99.90
39347;DHT22;26262;49.836;6.632;2023-01-16T05:11:30;4.80;99.90
39347;DHT22;26262;49.836;6.632;2023-01-16T05:13:55;4.80;99.90
39347;DHT22;26262;49.836;6.632;2023-01-16T05:16:21;4.70;99.90
39347;DHT22;26262;49.836;6.632;2023-01-16T05:18:47;4.70;99.90
39347;DHT22;26262;49.836;6.632;2023-01-16T05:21:12;4.70;99.90
39347;DHT22;26262;49.836;6.632;2023-01-16T05:23:38;4.70;99.90
39347;DHT22;26262;49.836;6.632;2023-01-16T05:26:04;4.80;99.90
39347;DHT22;26262;49.836;6.632;2023-01-16T05:28:31;4.80;99.90
39347;DHT22;26262;49.836;6.632;2023-01-16T05:30:57;4.80;99.90
39347;DHT22;26262;49.836;6.632;2023-01-16T05:33:23;4.80;99.90
39347;DHT22;26262;49.836;6.632;2023-01-16T05:35:49;4.80;99.90
39347;DHT22;26262;49.836;6.632;2023-01-16T05:38:16;4.80;99.90
39347;DHT22;26262;49.836;6.632;2023-01-16T05:40:43;4.90;99.90
39347;DHT22;26262;49.836;6.632;2023-01-16T05:43:09;4.90;99.90
39347;DHT22;26262;49.836;6.632;2023-01-16T05:45:34;4.80;99.90
39347;DHT22;26262;49.836;6.632;2023-01-16T05:48:00;4.80;99.90
39347;DHT22;26262;49.836;6.632;2023-01-16T05:50:25;4.70;99.90
39347;DHT22;26262;49.836;6.632;2023-01-16T05:52:51;4.70;99.90
39347;DHT22;26262;49.836;6.632;2023-01-16T05:55:17;4.70;99.90
39347;DHT22;26262;49.836;6.632;2023-01-16T05:57:42;4.80;99.90
39347;DHT22;26262;49.836;6.632;2023-01-16T06:00:08;4.80;99.90
39347;DHT22;26262;49.836;6.632;2023-01-16T06:02:34;4.70;99.90
39347;DHT22;26262;49.836;6.632;2023-01-16T06:05:00;4.80;99.90
39347;DHT22;26262;49.836;6.632;2023-01-16T06:07:26;4.70;99.90
39347;DHT22;26262;49.836;6.632;2023-01-16T06:09:51;4.70;99.90
39347;DHT22;26262;49.836;6.632;2023-01-16T06:12:18;4.70;99.90
39347;DHT22;26262;49.836;6.632;2023-01-16T06:14:44;4.80;99.90
39347;DHT22;26262;49.836;6.632;2023-01-16T06:17:11;4.70;99.90
39347;DHT22;26262;49.836;6.632;2023-01-16T06:19:40;4.80;99.90
39347;DHT22;26262;49.836;6.632;2023-01-16T06:22:05;4.80;99.90
39347;DHT22;26262;49.836;6.632;2023-01-16T06:24:31;4.80;99.90
39347;DHT22;26262;49.836;6.632;2023-01-16T06:26:57;4.80;99.90
39347;DHT22;26262;49.836;6.632;2023-01-16T06:29:22;4.90;99.90
39347;DHT22;26262;49.836;6.632;2023-01-16T06:31:48;4.80;99.90
39347;DHT22;26262;49.836;6.632;2023-01-16T06:34:13;4.80;99.90
39347;DHT22;26262;49.836;6.632;2023-01-16T06:36:39;4.80;99.90
39347;DHT22;26262;49.836;6.632;2023-01-16T06:39:07;4.70;99.90
39347;DHT22;26262;49.836;6.632;2023-01-16T06:41:32;4.80;99.90
39347;DHT22;26262;49.836;6.632;2023-01-16T06:43:58;4.70;99.90
39347;DHT22;26262;49.836;6.632;2023-01-16T06:46:24;4.70;99.90
39347;DHT22;26262;49.836;6.632;2023-01-16T06:48:49;4.60;99.90
39347;DHT22;26262;49.836;6.632;2023-01-16T06:51:15;4.50;99.90
39347;DHT22;26262;49.836;6.632;2023-01-16T06:53:40;4.50;99.90
39347;DHT22;26262;49.836;6.632;2023-01-16T06:56:06;4.50;99.90
39347;DHT22;26262;49.836;6.632;2023-01-16T06:58:31;4.50;99.90
39347;DHT22;26262;49.836;6.632;2023-01-16T07:00:57;4.40;99.90
39347;DHT22;26262;49.836;6.632;2023-01-16T07:03:22;4.40;99.90
39347;DHT22;26262;49.836;6.632;2023-01-16T07:05:49;4.40;99.90
39347;DHT22;26262;49.836;6.632;2023-01-16T07:08:15;4.40;99.90
39347;DHT22;26262;49.836;6.632;2023-01-16T07:10:41;4.40;99.90
39347;DHT22;26262;49.836;6.632;2023-01-16T07:13:06;4.30;99.90
39347;DHT22;26262;49.836;6.632;2023-01-16T07:15:32;4.30;99.90
39347;DHT22;26262;49.836;6.632;2023-01-16T07:18:17;4.30;99.90
39347;DHT22;26262;49.836;6.632;2023-01-16T07:21:03;4.30;99.90
39347;DHT22;26262;49.836;6.632;2023-01-16T07:23:57;4.30;99.90
39347;DHT22;26262;49.836;6.632;2023-01-16T07:26:24;4.30;99.90
39347;DHT22;26262;49.836;6.632;2023-01-16T07:28:51;4.10;99.90
39347;DHT22;26262;49.836;6.632;2023-01-16T07:31:17;4.10;99.90
39347;DHT22;26262;49.836;6.632;2023-01-16T07:33:43;4.10;99.90
39347;DHT22;26262;49.836;6.632;2023-01-16T07:36:08;4.20;99.90
39347;DHT22;26262;49.836;6.632;2023-01-16T07:38:34;4.20;99.90
39347;DHT22;26262;49.836;6.632;2023-01-16T07:40:59;4.20;99.90
39347;DHT22;26262;49.836;6.632;2023-01-16T07:43:25;4.10;99.90
39347;DHT22;26262;49.836;6.632;2023-01-16T07:45:50;4.10;99.90
39347;DHT22;26262;49.836;6.632;2023-01-16T07:48:23;4.10;99.90
39347;DHT22;26262;49.836;6.632;2023-01-16T07:50:56;4.10;99.90
39347;DHT22;26262;49.836;6.632;2023-01-16T07:53:24;4.10;99.90
39347;DHT22;26262;49.836;6.632;2023-01-16T07:55:51;4.10;99.90
39347;DHT22;26262;49.836;6.632;2023-01-16T07:58:17;4.00;99.90
39347;DHT22;26262;49.836;6.632;2023-01-16T08:00:43;4.00;99.90
39347;DHT22;26262;49.836;6.632;2023-01-16T08:03:10;4.00;99.90
39347;DHT22;26262;49.836;6.632;2023-01-16T08:05:36;4.00;99.90
39347;DHT22;26262;49.836;6.632;2023-01-16T08:08:01;3.90;99.90
39347;DHT22;26262;49.836;6.632;2023-01-16T08:10:27;3.90;99.90
39347;DHT22;26262;49.836;6.632;2023-01-16T08:12:52;4.00;99.90
39347;DHT22;26262;49.836;6.632;2023-01-16T08:15:18;4.00;99.90
39347;DHT22;26262;49.836;6.632;2023-01-16T08:17:43;4.00;99.90
39347;DHT22;26262;49.836;6.632;2023-01-16T08:20:09;3.90;99.90
39347;DHT22;26262;49.836;6.632;2023-01-16T08:22:35;3.90;99.90
39347;DHT22;26262;49.836;6.632;2023-01-16T08:25:06;3.90;99.90
39347;DHT22;26262;49.836;6.632;2023-01-16T08:27:32;3.90;99.90
39347;DHT22;26262;49.836;6.632;2023-01-16T08:29:57;3.90;99.90
39347;DHT22;26262;49.836;6.632;2023-01-16T08:32:23;3.80;99.90
39347;DHT22;26262;49.836;6.632;2023-01-16T08:34:48;3.80;99.90
39347;DHT22;26262;49.836;6.632;2023-01-16T08:37:14;3.80;99.90
39347;DHT22;26262;49.836;6.632;2023-01-16T08:39:40;3.90;99.90
39347;DHT22;26262;49.836;6.632;2023-01-16T08:42:05;3.90;99.90
39347;DHT22;26262;49.836;6.632;2023-01-16T08:44:49;3.90;99.90
39347;DHT22;26262;49.836;6.632;2023-01-16T08:47:33;4.00;99.90
39347;DHT22;26262;49.836;6.632;2023-01-16T08:50:19;4.10;99.90
39347;DHT22;26262;49.836;6.632;2023-01-16T08:53:04;4.10;99.90
39347;DHT22;26262;49.836;6.632;2023-01-16T08:55:30;4.00;99.90
39347;DHT22;26262;49.836;6.632;2023-01-16T08:57:57;4.00;99.90
39347;DHT22;26262;49.836;6.632;2023-01-16T09:00:28;4.00;99.90
39347;DHT22;26262;49.836;6.632;2023-01-16T09:02:54;4.10;99.90
39347;DHT22;26262;49.836;6.632;2023-01-16T09:05:22;4.10;99.90
39347;DHT22;26262;49.836;6.632;2023-01-16T09:07:47;4.10;99.90
39347;DHT22;26262;49.836;6.632;2023-01-16T09:10:13;4.20;99.90
39347;DHT22;26262;49.836;6.632;2023-01-16T09:12:39;4.20;99.90
39347;DHT22;26262;49.836;6.632;2023-01-16T09:15:24;4.20;99.90
39347;DHT22;26262;49.836;6.632;2023-01-16T09:17:50;4.30;99.90
39347;DHT22;26262;49.836;6.632;2023-01-16T09:20:16;4.30;99.90
39347;DHT22;26262;49.836;6.632;2023-01-16T09:22:42;4.40;99.90
39347;DHT22;26262;49.836;6.632;2023-01-16T09:25:08;4.40;99.90
39347;DHT22;26262;49.836;6.632;2023-01-16T09:27:33;4.40;99.90
39347;DHT22;26262;49.836;6.632;2023-01-16T09:29:59;4.40;99.90
39347;DHT22;26262;49.836;6.632;2023-01-16T09:32:25;4.40;99.90
39347;DHT22;26262;49.836;6.632;2023-01-16T09:34:51;4.40;99.90
39347;DHT22;26262;49.836;6.632;2023-01-16T09:37:16;4.50;99.90
39347;DHT22;26262;49.836;6.632;2023-01-16T09:39:42;4.50;99.90
39347;DHT22;26262;49.836;6.632;2023-01-16T09:42:37;4.50;99.90
39347;DHT22;26262;49.836;6.632;2023-01-16T09:45:30;4.60;99.90
39347;DHT22;26262;49.836;6.632;2023-01-16T09:48:03;4.60;99.90
39347;DHT22;26262;49.836;6.632;2023-01-16T09:50:38;4.70;99.90
39347;DHT22;26262;49.836;6.632;2023-01-16T09:53:12;4.70;99.90
39347;DHT22;26262;49.836;6.632;2023-01-16T09:55:58;4.80;99.90
39347;DHT22;26262;49.836;6.632;2023-01-16T09:58:48;4.80;99.90
39347;DHT22;26262;49.836;6.632;2023-01-16T10:01:29;5.00;99.90
39347;DHT22;26262;49.836;6.632;2023-01-16T10:04:20;5.00;99.90
39347;DHT22;26262;49.836;6.632;2023-01-16T10:07:16;5.10;99.90
39347;DHT22;26262;49.836;6.632;2023-01-16T10:09:53;5.10;99.90
39347;DHT22;26262;49.836;6.632;2023-01-16T10:12:21;5.10;99.90
39347;DHT22;26262;49.836;6.632;2023-01-16T10:17:45;5.10;99.90
39347;DHT22;26262;49.836;6.632;2023-01-16T10:20:45;5.20;99.90
39347;DHT22;26262;49.836;6.632;2023-01-16T10:23:32;5.10;99.90
39347;DHT22;26262;49.836;6.632;2023-01-16T10:26:32;5.10;99.90
39347;DHT22;26262;49.836;6.632;2023-01-16T10:29:36;5.10;99.90
39347;DHT22;26262;49.836;6.632;2023-01-16T10:37:26;5.10;99.90
39347;DHT22;26262;49.836;6.632;2023-01-16T10:39:53;5.10;99.90
39347;DHT22;26262;49.836;6.632;2023-01-16T10:42:26;5.20;99.90
39347;DHT22;26262;49.836;6.632;2023-01-16T10:45:25;5.20;99.90
39347;DHT22;26262;49.836;6.632;2023-01-16T10:48:12;5.30;99.90
39347;DHT22;26262;49.836;6.632;2023-01-16T10:50:58;5.40;99.90
39347;DHT22;26262;49.836;6.632;2023-01-16T10:53:24;5.50;99.90
39347;DHT22;26262;49.836;6.632;2023-01-16T10:55:51;5.50;99.90
39347;DHT22;26262;49.836;6.632;2023-01-16T10:58:24;5.60;99.90
39347;DHT22;26262;49.836;6.632;2023-01-16T11:00:57;5.60;99.90
39347;DHT22;26262;49.836;6.632;2023-01-16T11:08:33;5.60;99.90
39347;DHT22;26262;49.836;6.632;2023-01-16T11:10:58;5.60;99.90
39347;DHT22;26262;49.836;6.632;2023-01-16T11:13:25;5.70;99.90
39347;DHT22;26262;49.836;6.632;2023-01-16T11:18:55;5.50;99.90
39347;DHT22;26262;49.836;6.632;2023-01-16T11:21:30;5.40;99.90
39347;DHT22;26262;49.836;6.632;2023-01-16T11:24:03;5.30;99.90
39347;DHT22;26262;49.836;6.632;2023-01-16T11:26:29;5.30;99.90
39347;DHT22;26262;49.836;6.632;2023-01-16T11:28:56;5.20;99.90
39347;DHT22;26262;49.836;6.632;2023-01-16T11:31:26;5.30;99.90
39347;DHT22;26262;49.836;6.632;2023-01-16T11:34:01;5.30;99.90
39347;DHT22;26262;49.836;6.632;2023-01-16T11:36:31;5.20;99.90
39347;DHT22;26262;49.836;6.632;2023-01-16T11:38:58;5.20;99.90
39347;DHT22;26262;49.836;6.632;2023-01-16T11:41:28;5.20;99.90
39347;DHT22;26262;49.836;6.632;2023-01-16T11:44:18;5.30;99.90
39347;DHT22;26262;49.836;6.632;2023-01-16T11:47:02;5.20;99.90
39347;DHT22;26262;49.836;6.632;2023-01-16T11:49:35;5.30;99.90
39347;DHT22;26262;49.836;6.632;2023-01-16T11:52:01;5.10;99.90
39347;DHT22;26262;49.836;6.632;2023-01-16T11:54:33;5.10;99.90
39347;DHT22;26262;49.836;6.632;2023-01-16T11:57:22;5.20;99.90
39347;DHT22;26262;49.836;6.632;2023-01-16T12:00:02;5.20;99.90
39347;DHT22;26262;49.836;6.632;2023-01-16T12:11:07;5.20;99.90
39347;DHT22;26262;49.836;6.632;2023-01-16T12:13:39;5.20;99.90
39347;DHT22;26262;49.836;6.632;2023-01-16T12:22:04;5.30;99.90
39347;DHT22;26262;49.836;6.632;2023-01-16T12:24:43;5.30;99.90
39347;DHT22;26262;49.836;6.632;2023-01-16T12:30:27;5.30;99.90
39347;DHT22;26262;49.836;6.632;2023-01-16T12:35:54;5.30;99.90
39347;DHT22;26262;49.836;6.632;2023-01-16T12:44:29;5.50;99.90
39347;DHT22;26262;49.836;6.632;2023-01-16T12:47:29;5.60;99.90
39347;DHT22;26262;49.836;6.632;2023-01-16T12:53:10;5.60;99.90
39347;DHT22;26262;49.836;6.632;2023-01-16T12:55:49;5.50;99.90
39347;DHT22;26262;49.836;6.632;2023-01-16T12:58:19;5.60;99.90
39347;DHT22;26262;49.836;6.632;2023-01-16T13:01:18;5.70;99.90
39347;DHT22;26262;49.836;6.632;2023-01-16T13:04:37;5.60;99.90
39347;DHT22;26262;49.836;6.632;2023-01-16T13:06:53;5.60;99.90
39347;DHT22;26262;49.836;6.632;2023-01-16T13:14:56;5.60;99.90
39347;DHT22;26262;49.836;6.632;2023-01-16T13:17:26;5.60;99.90
39347;DHT22;26262;49.836;6.632;2023-01-16T13:19:58;5.70;99.90
39347;DHT22;26262;49.836;6.632;2023-01-16T13:22:55;5.70;99.90
39347;DHT22;26262;49.836;6.632;2023-01-16T13:25:36;5.60;99.90
39347;DHT22;26262;49.836;6.632;2023-01-16T13:31:27;5.70;99.90
39347;DHT22;26262;49.836;6.632;2023-01-16T13:33:58;5.70;99.90
39347;DHT22;26262;49.836;6.632;2023-01-16T13:41:50;5.60;99.90
39347;DHT22;26262;49.836;6.632;2023-01-16T13:44:50;5.50;99.90
39347;DHT22;26262;49.836;6.632;2023-01-16T13:47:39;5.50;99.90
39347;DHT22;26262;49.836;6.632;2023-01-16T13:50:17;5.50;99.90
39347;DHT22;26262;49.836;6.632;2023-01-16T13:52:43;5.50;99.90
39347;DHT22;26262;49.836;6.632;2023-01-16T13:57:54;5.50;99.90
39347;DHT22;26262;49.836;6.632;2023-01-16T14:00:21;5.40;99.90
39347;DHT22;26262;49.836;6.632;2023-01-16T14:03:45;5.40;99.90
39347;DHT22;26262;49.836;6.632;2023-01-16T14:14:24;5.10;99.90
39347;DHT22;26262;49.836;6.632;2023-01-16T14:17:10;5.20;99.90
39347;DHT22;26262;49.836;6.632;2023-01-16T14:19:41;5.10;99.90
39347;DHT22;26262;49.836;6.632;2023-01-16T14:22:18;5.10;99.90
39347;DHT22;26262;49.836;6.632;2023-01-16T14:24:47;5.10;99.90
39347;DHT22;26262;49.836;6.632;2023-01-16T14:27:19;5.10;99.90
39347;DHT22;26262;49.836;6.632;2023-01-16T14:29:51;5.00;99.90
39347;DHT22;26262;49.836;6.632;2023-01-16T14:32:24;5.00;99.90
39347;DHT22;26262;49.836;6.632;2023-01-16T14:37:39;5.10;99.90
39347;DHT22;26262;49.836;6.632;2023-01-16T14:42:40;5.00;99.90
39347;DHT22;26262;49.836;6.632;2023-01-16T14:45:30;4.90;99.90
39347;DHT22;26262;49.836;6.632;2023-01-16T14:48:34;4.90;99.90
39347;DHT22;26262;49.836;6.632;2023-01-16T14:51:31;4.80;99.90
39347;DHT22;26262;49.836;6.632;2023-01-16T14:54:29;4.80;99.90
39347;DHT22;26262;49.836;6.632;2023-01-16T14:57:19;4.80;99.90
39347;DHT22;26262;49.836;6.632;2023-01-16T15:00:11;4.70;99.90
39347;DHT22;26262;49.836;6.632;2023-01-16T15:02:57;4.70;99.90
39347;DHT22;26262;49.836;6.632;2023-01-16T15:05:43;4.70;99.90
39347;DHT22;26262;49.836;6.632;2023-01-16T15:08:32;4.70;99.90
39347;DHT22;26262;49.836;6.632;2023-01-16T15:11:05;4.70;99.90
39347;DHT22;26262;49.836;6.632;2023-01-16T15:14:13;4.70;99.90
39347;DHT22;26262;49.836;6.632;2023-01-16T15:20:15;4.80;99.90
39347;DHT22;26262;49.836;6.632;2023-01-16T15:23:02;4.80;99.90
39347;DHT22;26262;49.836;6.632;2023-01-16T15:31:21;4.70;99.90
39347;DHT22;26262;49.836;6.632;2023-01-16T15:34:00;4.70;99.90
39347;DHT22;26262;49.836;6.632;2023-01-16T15:38:58;4.70;99.90
39347;DHT22;26262;49.836;6.632;2023-01-16T15:41:33;4.70;99.90
39347;DHT22;26262;49.836;6.632;2023-01-16T15:44:20;4.80;99.90
39347;DHT22;26262;49.836;6.632;2023-01-16T15:52:47;4.50;99.90
39347;DHT22;26262;49.836;6.632;2023-01-16T15:55:20;4.50;99.90
39347;DHT22;26262;49.836;6.632;2023-01-16T15:57:50;4.50;99.90
39347;DHT22;26262;49.836;6.632;2023-01-16T16:00:34;4.50;99.90
39347;DHT22;26262;49.836;6.632;2023-01-16T16:03:11;4.50;99.90
39347;DHT22;26262;49.836;6.632;2023-01-16T16:05:39;4.50;99.90
39347;DHT22;26262;49.836;6.632;2023-01-16T16:08:06;4.50;99.90
39347;DHT22;26262;49.836;6.632;2023-01-16T16:10:36;4.50;99.90
39347;DHT22;26262;49.836;6.632;2023-01-16T16:13:22;4.50;99.90
39347;DHT22;26262;49.836;6.632;2023-01-16T16:16:21;4.50;99.90
39347;DHT22;26262;49.836;6.632;2023-01-16T16:19:07;4.50;99.90
39347;DHT22;26262;49.836;6.632;2023-01-16T16:21:43;4.50;99.90
39347;DHT22;26262;49.836;6.632;2023-01-16T16:24:48;4.50;99.90
39347;DHT22;26262;49.836;6.632;2023-01-16T16:27:15;4.50;99.90
39347;DHT22;26262;49.836;6.632;2023-01-16T16:29:50;4.50;99.90
39347;DHT22;26262;49.836;6.632;2023-01-16T16:32:17;4.50;99.90
39347;DHT22;26262;49.836;6.632;2023-01-16T16:34:52;4.50;99.90
39347;DHT22;26262;49.836;6.632;2023-01-16T16:37:19;4.50;99.90
39347;DHT22;26262;49.836;6.632;2023-01-16T16:39:48;4.30;99.90
39347;DHT22;26262;49.836;6.632;2023-01-16T16:47:34;4.20;99.90
39347;DHT22;26262;49.836;6.632;2023-01-16T16:50:01;4.20;99.90
39347;DHT22;26262;49.836;6.632;2023-01-16T16:52:35;4.20;99.90
39347;DHT22;26262;49.836;6.632;2023-01-16T16:55:20;4.30;99.90
39347;DHT22;26262;49.836;6.632;2023-01-16T16:57:51;4.30;99.90
39347;DHT22;26262;49.836;6.632;2023-01-16T17:00:17;4.30;99.90
39347;DHT22;26262;49.836;6.632;2023-01-16T17:02:46;4.30;99.90
39347;DHT22;26262;49.836;6.632;2023-01-16T17:05:13;4.40;99.90
39347;DHT22;26262;49.836;6.632;2023-01-16T17:07:40;4.40;99.90
39347;DHT22;26262;49.836;6.632;2023-01-16T17:10:14;4.30;99.90
39347;DHT22;26262;49.836;6.632;2023-01-16T17:12:40;4.30;99.90
39347;DHT22;26262;49.836;6.632;2023-01-16T17:15:06;4.40;99.90
39347;DHT22;26262;49.836;6.632;2023-01-16T17:17:33;4.40;99.90
39347;DHT22;26262;49.836;6.632;2023-01-16T17:19:58;4.40;99.90
39347;DHT22;26262;49.836;6.632;2023-01-16T17:22:24;4.30;99.90
39347;DHT22;26262;49.836;6.632;2023-01-16T17:24:49;4.30;99.90
39347;DHT22;26262;49.836;6.632;2023-01-16T17:27:16;4.30;99.90
39347;DHT22;26262;49.836;6.632;2023-01-16T17:29:42;4.20;99.90
39347;DHT22;26262;49.836;6.632;2023-01-16T17:32:27;4.20;99.90
39347;DHT22;26262;49.836;6.632;2023-01-16T17:34:57;4.20;99.90
39347;DHT22;26262;49.836;6.632;2023-01-16T17:37:23;4.20;99.90
39347;DHT22;26262;49.836;6.632;2023-01-16T17:39:49;4.20;99.90
39347;DHT22;26262;49.836;6.632;2023-01-16T17:42:14;4.20;99.90
39347;DHT22;26262;49.836;6.632;2023-01-16T17:44:40;4.20;99.90
39347;DHT22;26262;49.836;6.632;2023-01-16T17:47:24;4.20;99.90
39347;DHT22;26262;49.836;6.632;2023-01-16T17:49:51;4.30;99.90
39347;DHT22;26262;49.836;6.632;2023-01-16T17:52:35;4.30;99.90
39347;DHT22;26262;49.836;6.632;2023-01-16T17:55:01;4.30;99.90
39347;DHT22;26262;49.836;6.632;2023-01-16T17:57:45;4.40;99.90
39347;DHT22;26262;49.836;6.632;2023-01-16T18:00:11;4.40;99.90
39347;DHT22;26262;49.836;6.632;2023-01-16T18:02:37;4.40;99.90
39347;DHT22;26262;49.836;6.632;2023-01-16T18:05:04;4.50;99.90
39347;DHT22;26262;49.836;6.632;2023-01-16T18:07:29;4.50;99.90
39347;DHT22;26262;49.836;6.632;2023-01-16T18:09:55;4.50;99.90
39347;DHT22;26262;49.836;6.632;2023-01-16T18:12:20;4.50;99.90
39347;DHT22;26262;49.836;6.632;2023-01-16T18:15:05;4.40;99.90
39347;DHT22;26262;49.836;6.632;2023-01-16T18:17:50;4.50;99.90
39347;DHT22;26262;49.836;6.632;2023-01-16T18:20:16;4.40;99.90
39347;DHT22;26262;49.836;6.632;2023-01-16T18:22:41;4.40;99.90
39347;DHT22;26262;49.836;6.632;2023-01-16T18:25:07;4.40;99.90
39347;DHT22;26262;49.836;6.632;2023-01-16T18:27:33;4.40;99.90
39347;DHT22;26262;49.836;6.632;2023-01-16T18:29:59;4.30;99.90